Time;durP1;ratioP1;P1;durP2;ratioP2;P2;SDS_P1;SDS_P2;PMS_P1;PMS_P2;Temp;Humidity;BMP_temperature;BMP_pressure;BME280_temperature;BME280_humidity;BME280_pressure;Samples;Min_cycle;Max_cycle;Signal;HPM_P1;HPM_P2
2021/07/07 00:01:45;;;;;;;15.70;14.15;;;;;;;18.19;67.90;97049.63;1811362;78;25858;-79
2021/07/07 00:04:11;;;;;;;15.58;13.62;;;;;;;18.16;67.94;97052.06;1814291;77;25637;-77
2021/07/07 00:06:38;;;;;;;17.25;15.43;;;;;;;18.10;68.00;97051.24;1816672;78;26263;-77
2021/07/07 00:09:05;;;;;;;15.05;13.38;;;;;;;18.03;68.04;97053.38;1821164;77;25708;-77
2021/07/07 00:11:31;;;;;;;15.78;14.15;;;;;;;17.98;68.20;97049.28;1821287;77;28151;-77
2021/07/07 00:13:58;;;;;;;16.25;14.58;;;;;;;17.96;68.21;97055.01;1810373;78;25832;-77
2021/07/07 00:16:26;;;;;;;15.70;14.20;;;;;;;17.90;68.26;97049.77;1810970;78;25654;-77
2021/07/07 00:18:53;;;;;;;16.87;14.83;;;;;;;17.86;68.33;97050.05;1815230;78;25729;-78
2021/07/07 00:21:20;;;;;;;17.20;15.13;;;;;;;17.82;68.46;97048.39;1791646;78;25930;-77
2021/07/07 00:23:47;;;;;;;16.82;13.93;;;;;;;17.79;68.57;97049.45;1824343;77;27354;-78
2021/07/07 00:26:14;;;;;;;15.20;13.70;;;;;;;17.77;68.66;97050.26;1821238;77;26035;-77
2021/07/07 00:28:41;;;;;;;15.53;13.93;;;;;;;17.74;68.68;97054.91;1821266;78;25791;-79
2021/07/07 00:31:07;;;;;;;16.62;14.68;;;;;;;17.71;68.69;97051.34;1819413;77;25715;-77
2021/07/07 00:33:34;;;;;;;15.45;13.93;;;;;;;17.67;68.78;97055.67;1800215;79;25647;-78
2021/07/07 00:36:01;;;;;;;17.27;14.85;;;;;;;17.64;68.74;97061.11;1819675;77;28230;-77
2021/07/07 00:38:27;;;;;;;16.05;14.38;;;;;;;17.59;68.81;97061.89;1801405;77;25207;-80
2021/07/07 00:40:56;;;;;;;16.23;14.25;;;;;;;17.54;68.90;97062.39;1808442;77;26052;-77
2021/07/07 00:43:22;;;;;;;15.93;14.15;;;;;;;17.48;68.96;97058.82;1813549;77;26450;-77
2021/07/07 00:45:49;;;;;;;15.32;13.78;;;;;;;17.45;69.13;97056.61;1811473;77;25210;-77
2021/07/07 00:48:15;;;;;;;16.77;14.47;;;;;;;17.42;69.16;97065.31;1824881;77;28228;-80
2021/07/07 00:50:42;;;;;;;14.95;13.55;;;;;;;17.40;69.26;97063.39;1812224;77;26281;-77
2021/07/07 00:53:12;;;;;;;15.75;14.15;;;;;;;17.37;69.22;97063.12;1812548;77;25666;-78
2021/07/07 00:55:41;;;;;;;17.87;14.73;;;;;;;17.33;69.33;97060.08;1812538;79;25685;-77
2021/07/07 00:58:10;;;;;;;16.65;14.38;;;;;;;17.30;69.40;97055.14;1812682;77;25595;-78
2021/07/07 01:00:37;;;;;;;16.82;14.15;;;;;;;17.26;69.47;97060.32;1812506;77;28102;-77
2021/07/07 01:03:05;;;;;;;17.27;14.55;;;;;;;17.24;69.56;97057.03;1802656;79;25905;-78
2021/07/07 01:05:32;;;;;;;17.95;14.63;;;;;;;17.23;69.58;97051.83;1813836;77;25713;-77
2021/07/07 01:07:58;;;;;;;16.65;14.85;;;;;;;17.20;69.61;97050.45;1813692;77;25638;-79
2021/07/07 01:10:25;;;;;;;17.92;15.30;;;;;;;17.15;69.69;97051.76;1812855;78;25733;-78
2021/07/07 01:12:54;;;;;;;16.93;14.68;;;;;;;17.03;69.69;97053.02;1812735;79;27500;-78
2021/07/07 01:15:21;;;;;;;17.45;15.58;;;;;;;16.97;70.07;97056.27;1812330;79;25630;-78
2021/07/07 01:17:50;;;;;;;17.05;15.40;;;;;;;16.97;70.28;97059.53;1812648;79;25785;-78
2021/07/07 01:20:21;;;;;;;17.20;14.80;;;;;;;16.97;70.31;97060.90;1812863;77;25886;-77
2021/07/07 01:22:48;;;;;;;19.47;16.33;;;;;;;16.95;70.33;97063.88;1813011;79;25769;-79
2021/07/07 01:25:34;;;;;;;18.07;15.50;;;;;;;16.93;70.44;97060.59;1818159;77;27398;-80
2021/07/07 01:28:04;;;;;;;20.12;15.30;;;;;;;16.90;70.47;97059.20;1805870;77;26263;-79
2021/07/07 01:30:31;;;;;;;16.85;14.33;;;;;;;16.89;70.49;97063.03;1810277;77;25730;-80
2021/07/07 01:32:58;;;;;;;16.45;14.30;;;;;;;16.87;70.45;97067.09;1808980;77;26506;-78
2021/07/07 01:35:26;;;;;;;17.62;14.00;;;;;;;16.84;70.42;97054.80;1812915;77;25734;-81
2021/07/07 01:37:53;;;;;;;15.28;13.55;;;;;;;16.82;70.45;97062.41;1812841;77;28264;-78
2021/07/07 01:40:24;;;;;;;17.57;14.85;;;;;;;16.81;70.51;97068.94;1805672;79;25769;-77
2021/07/07 01:42:51;;;;;;;16.67;14.98;;;;;;;16.78;70.51;97064.03;1828760;77;25713;-78
2021/07/07 01:45:23;;;;;;;16.12;14.38;;;;;;;16.76;70.59;97060.73;1812630;77;25736;-81
2021/07/07 01:47:52;;;;;;;16.62;14.93;;;;;;;16.75;70.65;97067.27;1812883;77;26385;-78
2021/07/07 01:50:23;;;;;;;15.88;14.15;;;;;;;16.72;70.65;97060.95;1812806;77;27280;-79
2021/07/07 01:52:50;;;;;;;22.10;15.55;;;;;;;16.70;70.68;97060.39;1812666;77;25622;-79
2021/07/07 01:55:18;;;;;;;15.85;14.25;;;;;;;16.69;70.70;97053.83;1812483;78;25700;-81
2021/07/07 01:57:47;;;;;;;15.70;14.07;;;;;;;16.65;70.72;97053.55;1811424;77;26289;-79
2021/07/07 02:00:28;;;;;;;16.95;14.20;;;;;;;16.62;70.72;97056.78;1824195;77;25606;-78
2021/07/07 02:02:57;;;;;;;16.65;13.70;;;;;;;16.61;70.80;97060.55;1819606;77;27243;-78
2021/07/07 02:05:32;;;;;;;14.10;12.55;;;;;;;16.58;70.85;97063.78;1808391;77;25105;-78
2021/07/07 02:08:04;;;;;;;15.48;13.98;;;;;;;16.54;70.84;97054.50;1825073;77;25623;-81
2021/07/07 02:10:32;;;;;;;16.02;14.30;;;;;;;16.52;70.78;97063.47;1805290;77;27051;-81
2021/07/07 02:12:59;;;;;;;17.42;14.28;;;;;;;16.47;70.83;97061.50;1789417;79;25629;-78
2021/07/07 02:15:32;;;;;;;14.63;12.85;;;;;;;16.47;70.86;97067.48;1812821;79;27201;-77
2021/07/07 02:18:00;;;;;;;15.43;13.85;;;;;;;16.44;70.85;97065.27;1810591;78;26203;-80
2021/07/07 02:20:30;;;;;;;15.08;13.38;;;;;;;16.39;70.89;97059.78;1799396;79;25573;-79
2021/07/07 02:22:58;;;;;;;16.00;13.90;;;;;;;16.36;71.01;97057.03;1812679;78;25681;-79
2021/07/07 02:25:30;;;;;;;15.15;13.53;;;;;;;16.35;71.13;97058.64;1812855;77;25589;-79
2021/07/07 02:27:59;;;;;;;15.70;13.50;;;;;;;16.30;71.18;97061.33;1812875;77;27352;-80
2021/07/07 02:30:31;;;;;;;14.45;12.93;;;;;;;16.23;71.31;97064.23;1812556;79;25638;-79
2021/07/07 02:33:00;;;;;;;15.38;13.78;;;;;;;16.19;71.33;97060.38;1818863;77;25535;-77
2021/07/07 02:35:32;;;;;;;15.40;13.90;;;;;;;16.17;71.41;97057.92;1821864;78;25698;-78
2021/07/07 02:38:02;;;;;;;15.98;14.35;;;;;;;16.13;71.49;97060.05;1822832;77;25628;-78
2021/07/07 02:40:32;;;;;;;15.63;14.03;;;;;;;16.11;71.67;97067.10;1814551;78;27310;-77
2021/07/07 02:43:00;;;;;;;16.57;14.75;;;;;;;16.10;71.74;97071.44;1813768;77;25640;-82
2021/07/07 02:45:30;;;;;;;15.40;13.68;;;;;;;16.07;71.69;97070.04;1792040;78;25677;-79
2021/07/07 02:47:58;;;;;;;18.73;14.75;;;;;;;16.01;71.70;97066.16;1821556;78;26564;-79
2021/07/07 02:50:26;;;;;;;15.05;13.50;;;;;;;15.96;71.86;97072.36;1822022;77;25539;-82
2021/07/07 02:52:55;;;;;;;15.98;14.10;;;;;;;15.95;72.03;97072.61;1814017;78;27308;-81
2021/07/07 02:55:24;;;;;;;18.12;15.32;;;;;;;15.87;72.12;97080.69;1831694;77;25480;-77
2021/07/07 02:57:56;;;;;;;20.35;14.38;;;;;;;15.82;72.24;97079.25;1822055;77;25680;-80
2021/07/07 03:00:28;;;;;;;;;;;;;;;15.85;72.45;97082.83;1813727;77;25817;-80
2021/07/07 03:03:02;;;;;;;17.20;13.22;;;;;;;15.86;72.74;97079.03;1836825;76;25560;-81
2021/07/07 03:05:32;;;;;;;19.35;13.72;;;;;;;15.85;72.54;97080.94;1821165;78;27467;-78
2021/07/07 03:08:00;;;;;;;17.60;13.83;;;;;;;15.90;72.53;97087.53;1808747;78;26192;-80
2021/07/07 03:10:28;;;;;;;15.30;13.70;;;;;;;15.89;72.46;97083.98;1821639;77;25541;-80
2021/07/07 03:12:56;;;;;;;16.75;14.33;;;;;;;15.89;72.48;97080.44;1821759;78;25646;-80
2021/07/07 03:15:25;;;;;;;19.15;13.58;;;;;;;15.79;72.43;97081.13;1806339;78;25640;-78
2021/07/07 03:17:55;;;;;;;15.32;13.38;;;;;;;15.81;72.57;97081.71;1819128;77;27292;-79
2021/07/07 03:20:22;;;;;;;17.82;13.50;;;;;;;15.83;72.65;97093.14;1821621;78;25562;-79
2021/07/07 03:22:50;;;;;;;14.45;12.93;;;;;;;15.85;72.72;97096.44;1821954;77;25677;-78
2021/07/07 03:25:18;;;;;;;16.02;13.90;;;;;;;15.87;72.68;97096.19;1821996;78;25673;-79
2021/07/07 03:27:45;;;;;;;18.95;14.45;;;;;;;15.88;72.76;97097.84;1821780;77;25604;-78
2021/07/07 03:30:14;;;;;;;17.45;13.35;;;;;;;15.87;72.74;97106.54;1809553;78;27223;-81
2021/07/07 03:32:42;;;;;;;16.82;13.50;;;;;;;15.85;72.73;97108.69;1821447;77;25823;-82
2021/07/07 03:35:11;;;;;;;15.38;12.80;;;;;;;15.87;72.87;97107.91;1821446;77;26137;-81
2021/07/07 03:37:39;;;;;;;13.60;12.28;;;;;;;15.88;72.88;97115.00;1821856;78;26378;-83
2021/07/07 03:40:10;;;;;;;15.72;12.53;;;;;;;15.88;72.89;97115.53;1821991;77;25503;-83
2021/07/07 03:42:38;;;;;;;14.50;11.88;;;;;;;15.90;72.89;97118.30;1821996;78;27233;-79
2021/07/07 03:45:09;;;;;;;14.00;12.63;;;;;;;15.91;72.87;97121.30;1821888;77;25518;-77
2021/07/07 03:47:37;;;;;;;18.73;13.90;;;;;;;15.93;72.94;97117.80;1821905;78;26176;-82
2021/07/07 03:50:07;;;;;;;14.38;12.88;;;;;;;15.94;72.99;97128.95;1822093;78;26424;-80
2021/07/07 03:52:36;;;;;;;13.53;12.18;;;;;;;15.92;73.07;97125.67;1822006;78;25140;-82
2021/07/07 03:55:09;;;;;;;15.95;12.90;;;;;;;15.94;73.22;97133.02;1821979;78;27226;-81
2021/07/07 03:57:37;;;;;;;14.70;13.20;;;;;;;15.98;73.29;97127.91;1821856;78;25832;-79
2021/07/07 04:00:12;;;;;;;15.40;13.58;;;;;;;16.02;73.38;97135.33;1821865;77;25568;-78
2021/07/07 04:02:39;;;;;;;18.30;14.20;;;;;;;16.06;73.43;97133.73;1821764;78;26857;-79
2021/07/07 04:05:10;;;;;;;18.12;14.18;;;;;;;16.09;73.49;97134.59;1821848;77;26083;-78
2021/07/07 04:07:38;;;;;;;22.70;14.98;;;;;;;16.12;73.45;97138.18;1821912;77;27088;-77
2021/07/07 04:10:09;;;;;;;18.80;15.60;;;;;;;16.16;73.49;97137.97;1821445;78;25900;-79
2021/07/07 04:12:36;;;;;;;16.93;14.23;;;;;;;16.23;73.53;97136.94;1821620;78;25642;-79
2021/07/07 04:15:07;;;;;;;15.75;14.05;;;;;;;16.28;73.50;97139.74;1821851;77;25750;-79
2021/07/07 04:17:35;;;;;;;18.37;15.03;;;;;;;16.32;73.54;97140.86;1821770;77;25637;-78
2021/07/07 04:20:11;;;;;;;20.37;16.32;;;;;;;16.35;73.61;97136.27;1821887;77;27267;-79
2021/07/07 04:22:39;;;;;;;20.17;16.35;;;;;;;16.36;73.68;97130.58;1821907;78;25478;-83
2021/07/07 04:25:09;;;;;;;18.80;16.42;;;;;;;16.41;73.73;97140.72;1821898;77;25755;-80
2021/07/07 04:27:38;;;;;;;22.02;15.63;;;;;;;16.45;73.80;97140.47;1821652;78;25874;-78
2021/07/07 04:30:09;;;;;;;17.48;15.65;;;;;;;16.48;73.78;97132.63;1821937;77;25595;-78
2021/07/07 04:32:37;;;;;;;18.35;15.50;;;;;;;16.54;73.83;97135.67;1820002;77;27909;-82
2021/07/07 04:35:07;;;;;;;21.40;15.48;;;;;;;16.61;73.84;97143.66;1812690;78;25479;-81
2021/07/07 04:37:35;;;;;;;19.98;15.55;;;;;;;16.66;73.92;97136.95;1812635;77;25518;-80
2021/07/07 04:40:06;;;;;;;20.65;15.05;;;;;;;16.71;73.84;97141.61;1812503;78;26214;-78
2021/07/07 04:42:34;;;;;;;17.70;14.45;;;;;;;16.78;73.86;97143.07;1799704;79;25709;-78
2021/07/07 04:45:06;;;;;;;17.20;13.90;;;;;;;16.83;73.86;97140.38;1809149;79;27909;-78
2021/07/07 04:47:35;;;;;;;22.58;15.48;;;;;;;16.90;73.89;97140.19;1812822;79;25096;-78
2021/07/07 04:50:10;;;;;;;18.48;15.23;;;;;;;16.97;73.92;97142.69;1812598;78;25522;-79
2021/07/07 04:52:39;;;;;;;18.62;16.30;;;;;;;17.03;73.89;97141.64;1808305;77;26495;-79
2021/07/07 04:55:10;;;;;;;26.50;20.80;;;;;;;17.10;74.07;97141.73;1813136;77;25637;-78
2021/07/07 04:57:41;;;;;;;24.90;19.30;;;;;;;17.17;74.06;97142.87;1818652;77;27280;-83
2021/07/07 05:00:22;;;;;;;25.65;21.27;;;;;;;17.23;74.02;97139.12;1812536;77;25885;-78
2021/07/07 05:02:51;;;;;;;29.40;20.37;;;;;;;17.30;74.09;97146.53;1812829;77;25525;-79
2021/07/07 05:05:21;;;;;;;29.10;21.35;;;;;;;17.36;74.18;97144.14;1812601;77;25690;-79
2021/07/07 05:07:50;;;;;;;29.63;18.90;;;;;;;17.42;74.13;97140.35;1812748;77;25762;-80
2021/07/07 05:10:18;;;;;;;24.23;16.50;;;;;;;17.48;74.13;97136.59;1811996;77;28081;-79
2021/07/07 05:12:46;;;;;;;25.35;16.55;;;;;;;17.57;74.06;97137.74;1809583;79;25601;-78
2021/07/07 05:15:15;;;;;;;22.50;16.00;;;;;;;17.63;74.09;97140.80;1812484;79;26329;-81
2021/07/07 05:17:45;;;;;;;22.73;16.45;;;;;;;17.73;74.07;97143.34;1812814;79;25621;-80
2021/07/07 05:20:13;;;;;;;26.05;15.50;;;;;;;17.79;74.06;97143.64;1800767;79;25585;-83
2021/07/07 05:22:43;;;;;;;20.40;15.48;;;;;;;17.86;74.06;97143.70;1817301;77;27221;-83
2021/07/07 05:25:12;;;;;;;19.60;15.23;;;;;;;17.93;74.00;97146.19;1812722;79;25581;-82
2021/07/07 05:27:40;;;;;;;23.95;15.80;;;;;;;18.00;74.08;97146.22;1812839;79;25602;-84
2021/07/07 05:30:09;;;;;;;20.77;15.20;;;;;;;18.06;74.14;97144.34;1812896;77;25712;-83
2021/07/07 05:32:37;;;;;;;17.82;14.45;;;;;;;18.17;74.16;97146.05;1811854;78;25627;-81
2021/07/07 05:35:08;;;;;;;21.15;14.20;;;;;;;18.24;74.04;97147.98;1790202;79;27025;-83
2021/07/07 05:37:36;;;;;;;22.00;14.33;;;;;;;18.34;73.97;97146.68;1812774;77;25124;-83
2021/07/07 05:40:04;;;;;;;16.97;14.40;;;;;;;18.44;73.85;97142.34;1812797;77;25612;-81
2021/07/07 05:42:32;;;;;;;19.70;14.98;;;;;;;18.55;73.81;97146.74;1812908;78;25730;-83
2021/07/07 05:44:59;;;;;;;21.77;15.05;;;;;;;18.65;73.69;97144.89;1812848;77;25671;-83
2021/07/07 05:47:27;;;;;;;20.50;14.53;;;;;;;18.76;73.68;97144.91;1812859;79;27376;-83
2021/07/07 05:49:56;;;;;;;18.55;14.43;;;;;;;18.87;73.48;97143.30;1812652;77;25570;-83
2021/07/07 05:52:26;;;;;;;18.57;13.62;;;;;;;18.97;73.30;97143.31;1812737;79;25654;-83
2021/07/07 05:54:58;;;;;;;16.95;14.95;;;;;;;19.08;73.26;97142.23;1812695;79;26363;-84
2021/07/07 05:57:37;;;;;;;18.12;13.88;;;;;;;19.20;73.07;97132.97;1812949;79;25637;-83
2021/07/07 05:59:55;;;;;;;17.30;14.15;;;;;;;19.30;72.87;97136.52;1814060;77;27227;-82
2021/07/07 06:02:23;;;;;;;15.80;14.15;;;;;;;19.42;72.91;97137.62;1812555;79;25560;-84
2021/07/07 06:04:50;;;;;;;14.28;12.35;;;;;;;19.54;72.95;97131.34;1812804;78;25558;-84
2021/07/07 06:07:18;;;;;;;14.75;12.93;;;;;;;19.65;72.73;97132.98;1811864;77;25883;-82
2021/07/07 06:09:45;;;;;;;14.55;12.85;;;;;;;19.77;72.57;97138.98;1805374;77;25605;-83
2021/07/07 06:12:13;;;;;;;14.25;12.85;;;;;;;19.88;72.32;97134.30;1802791;79;27230;-83
2021/07/07 06:14:41;;;;;;;15.05;13.50;;;;;;;20.03;72.36;97131.53;1803474;79;25597;-83
2021/07/07 06:17:08;;;;;;;12.95;11.70;;;;;;;20.16;72.26;97136.16;1799930;77;25638;-84
2021/07/07 06:19:36;;;;;;;13.90;11.83;;;;;;;20.24;72.18;97129.55;1812750;78;25753;-83
2021/07/07 06:22:04;;;;;;;15.70;12.33;;;;;;;20.36;71.99;97134.19;1812742;78;25790;-83
2021/07/07 06:24:31;;;;;;;14.95;11.95;;;;;;;20.47;71.90;97138.52;1812631;77;28096;-83
2021/07/07 06:26:59;;;;;;;14.50;11.88;;;;;;;20.63;71.31;97134.34;1800418;79;26032;-85
2021/07/07 06:29:26;;;;;;;12.93;11.55;;;;;;;20.78;70.84;97134.23;1812710;77;25586;-84
2021/07/07 06:31:54;;;;;;;18.98;12.15;;;;;;;20.90;70.67;97140.20;1812668;78;26562;-84
2021/07/07 06:34:21;;;;;;;13.50;12.00;;;;;;;21.00;70.24;97140.16;1812324;77;25630;-81
2021/07/07 06:36:49;;;;;;;17.07;11.15;;;;;;;21.11;69.73;97141.73;1812419;79;28097;-84
2021/07/07 06:39:17;;;;;;;13.13;11.83;;;;;;;21.22;69.46;97136.20;1812733;77;25685;-84
2021/07/07 06:41:44;;;;;;;14.73;11.88;;;;;;;21.33;69.61;97135.01;1812425;78;25595;-84
2021/07/07 06:44:12;;;;;;;13.05;11.43;;;;;;;21.45;69.87;97139.58;1800721;77;26352;-84
2021/07/07 06:46:39;;;;;;;14.15;12.15;;;;;;;21.57;69.97;97141.40;1818204;77;25579;-83
2021/07/07 06:49:07;;;;;;;12.37;11.15;;;;;;;21.70;69.62;97142.66;1812872;79;27390;-82
2021/07/07 06:51:35;;;;;;;16.93;11.60;;;;;;;21.82;69.03;97138.42;1812514;77;25614;-81
2021/07/07 06:54:02;;;;;;;12.75;11.25;;;;;;;21.98;68.56;97139.06;1812818;78;25574;-80
2021/07/07 06:56:30;;;;;;;18.30;11.70;;;;;;;22.07;68.08;97142.87;1797507;79;25657;-84
2021/07/07 06:58:57;;;;;;;14.95;10.80;;;;;;;22.18;68.06;97143.57;1812848;77;25296;-83
2021/07/07 07:01:25;;;;;;;14.25;11.40;;;;;;;22.26;67.88;97141.55;1797545;77;27227;-86
2021/07/07 07:03:52;;;;;;;11.88;10.75;;;;;;;22.37;67.56;97141.69;1804047;79;25558;-81
2021/07/07 07:06:20;;;;;;;12.45;10.63;;;;;;;22.50;67.42;97136.03;1798452;77;25288;-84
2021/07/07 07:08:48;;;;;;;13.00;11.18;;;;;;;22.61;66.87;97136.16;1808739;78;25827;-81
2021/07/07 07:11:17;;;;;;;12.43;10.28;;;;;;;22.71;66.48;97140.70;1813682;77;25555;-83
2021/07/07 07:13:45;;;;;;;14.28;11.53;;;;;;;22.83;66.67;97143.31;1801855;77;28236;-84
2021/07/07 07:16:14;;;;;;;12.47;11.18;;;;;;;22.93;66.30;97138.25;1810401;77;25694;-84
2021/07/07 07:18:41;;;;;;;13.28;11.08;;;;;;;23.06;66.03;97136.14;1812699;79;25733;-84
2021/07/07 07:21:09;;;;;;;12.30;10.70;;;;;;;23.21;65.43;97133.69;1812746;78;25893;-82
2021/07/07 07:23:36;;;;;;;11.55;10.32;;;;;;;23.33;65.23;97126.61;1812743;79;25707;-83
2021/07/07 07:26:04;;;;;;;12.47;9.65;;;;;;;23.42;64.31;97131.45;1812629;77;26922;-83
2021/07/07 07:28:32;;;;;;;11.40;10.20;;;;;;;23.48;63.09;97101.31;1812430;79;25967;-83
2021/07/07 07:31:00;;;;;;;12.00;9.40;;;;;;;23.70;63.33;97124.36;1812385;79;25728;-83
2021/07/07 07:33:27;;;;;;;11.15;9.93;;;;;;;23.83;63.70;97121.38;1822040;77;26747;-83
2021/07/07 07:35:55;;;;;;;10.60;9.48;;;;;;;23.83;63.70;97121.38;1842578;77;25698;-83
2021/07/07 07:38:27;;;;;;;11.03;9.03;;;;;;;23.94;62.95;97122.83;1828636;77;28124;-84
2021/07/07 07:40:55;;;;;;;10.03;9.03;;;;;;;24.11;62.63;97124.19;1827115;77;25347;-83
2021/07/07 07:43:24;;;;;;;10.50;9.48;;;;;;;24.23;61.98;97124.53;1827109;77;25632;-83
2021/07/07 07:45:59;;;;;;;10.35;8.73;;;;;;;24.25;61.72;97102.98;1827153;78;26361;-83
2021/07/07 07:48:27;;;;;;;10.60;9.70;;;;;;;24.51;61.57;97117.08;1822099;77;25649;-82
2021/07/07 07:50:55;;;;;;;14.75;10.15;;;;;;;24.62;61.34;97120.70;1795597;78;28129;-84
2021/07/07 07:53:23;;;;;;;11.85;9.30;;;;;;;24.72;60.86;97120.47;1821360;78;26032;-85
2021/07/07 07:55:51;;;;;;;12.43;8.60;;;;;;;24.84;60.54;97117.74;1832198;77;26407;-81
2021/07/07 07:58:19;;;;;;;11.57;8.60;;;;;;;24.96;59.93;97118.05;1827069;77;25887;-84
2021/07/07 08:00:50;;;;;;;8.78;7.87;;;;;;;25.20;59.64;97124.11;1827195;78;25549;-84
2021/07/07 08:03:18;;;;;;;11.28;7.83;;;;;;;25.53;58.94;97121.92;1820748;78;27183;-86
2021/07/07 08:05:46;;;;;;;8.55;7.62;;;;;;;25.99;58.63;97120.20;1827036;77;25612;-84
2021/07/07 08:08:14;;;;;;;8.75;7.85;;;;;;;26.51;58.18;97125.98;1826578;78;36119;-84
2021/07/07 08:10:42;;;;;;;9.80;7.45;;;;;;;27.01;57.25;97127.03;1827066;77;25882;-82
2021/07/07 08:13:09;;;;;;;9.68;7.80;;;;;;;27.48;56.89;97128.83;1826812;78;25594;-84
2021/07/07 08:15:37;;;;;;;7.20;6.60;;;;;;;27.98;56.72;97114.42;1827202;77;27210;-84
2021/07/07 08:18:04;;;;;;;7.40;6.62;;;;;;;28.45;55.43;97106.92;1826964;77;25573;-84
2021/07/07 08:20:32;;;;;;;7.62;6.65;;;;;;;28.90;54.31;97108.56;1827017;77;25321;-84
2021/07/07 08:23:00;;;;;;;6.67;5.22;;;;;;;29.29;53.32;97117.60;1826889;78;25722;-85
2021/07/07 08:25:27;;;;;;;5.22;4.72;;;;;;;29.64;52.01;97115.36;1827164;77;25612;-83
2021/07/07 08:27:55;;;;;;;5.70;5.10;;;;;;;29.97;50.98;97116.77;1827072;78;28175;-84
2021/07/07 08:30:25;;;;;;;7.60;5.20;;;;;;;30.28;50.15;97118.47;1827021;78;25618;-84
2021/07/07 08:32:52;;;;;;;6.37;5.20;;;;;;;30.59;49.47;97121.29;1827032;78;25538;-83
2021/07/07 08:35:20;;;;;;;5.50;5.00;;;;;;;30.90;48.62;97125.70;1815688;77;26524;-86
2021/07/07 08:37:48;;;;;;;6.00;5.40;;;;;;;31.12;47.80;97123.84;1812702;77;25533;-80
2021/07/07 08:40:17;;;;;;;5.55;5.05;;;;;;;31.38;47.71;97123.43;1812527;77;26905;-80
2021/07/07 08:42:46;;;;;;;5.00;4.60;;;;;;;31.66;47.68;97122.06;1812668;77;25681;-82
2021/07/07 08:45:17;;;;;;;4.65;4.25;;;;;;;31.97;46.38;97128.33;1812603;79;25558;-83
2021/07/07 08:47:47;;;;;;;5.37;4.40;;;;;;;32.26;45.55;97127.13;1812873;77;25763;-81
2021/07/07 08:50:25;;;;;;;4.65;4.28;;;;;;;32.59;44.67;97117.59;1812562;78;25612;-85
2021/07/07 08:52:56;;;;;;;4.90;4.50;;;;;;;32.83;43.98;97128.59;1812579;78;27277;-86
2021/07/07 08:55:24;;;;;;;4.67;4.25;;;;;;;33.09;43.25;97125.22;1812727;79;25678;-87
2021/07/07 08:57:53;;;;;;;5.65;4.00;;;;;;;33.37;42.43;97127.84;1812693;78;25574;-87
2021/07/07 09:00:33;;;;;;;5.53;4.28;;;;;;;33.67;42.36;97125.30;1812680;77;25550;-87
2021/07/07 09:03:14;;;;;;;4.55;4.20;;;;;;;33.97;41.38;97125.73;1812618;77;25543;-82
2021/07/07 09:06:06;;;;;;;4.80;4.40;;;;;;;34.31;40.74;97123.98;1797072;77;28257;-81
2021/07/07 09:08:45;;;;;;;4.20;3.90;;;;;;;34.59;40.08;97127.08;1818750;77;25939;-81
2021/07/07 09:11:29;;;;;;;4.12;3.83;;;;;;;34.85;39.43;97131.95;1812674;78;25548;-80
2021/07/07 09:14:14;;;;;;;4.83;4.03;;;;;;;35.10;38.70;97123.91;1812339;77;26543;-80
2021/07/07 09:17:02;;;;;;;4.55;4.15;;;;;;;35.33;37.96;97133.91;1812677;78;25539;-86
2021/07/07 09:19:27;;;;;;;6.25;4.50;;;;;;;35.61;37.09;97132.67;1812235;78;28037;-82
2021/07/07 09:22:06;;;;;;;4.17;3.87;;;;;;;35.64;36.32;97134.70;1812498;79;25812;-83
2021/07/07 09:24:30;;;;;;;4.70;4.40;;;;;;;35.75;35.68;97137.07;1812924;78;25745;-82
2021/07/07 09:27:08;;;;;;;4.53;4.12;;;;;;;35.67;34.98;97138.16;1800649;79;25653;-84
2021/07/07 09:29:57;;;;;;;4.25;3.95;;;;;;;35.74;34.03;97134.86;1812690;78;25685;-84
2021/07/07 09:32:27;;;;;;;5.45;4.42;;;;;;;35.71;33.50;97139.02;1811323;77;27431;-84
2021/07/07 09:35:02;;;;;;;4.65;4.05;;;;;;;35.66;33.63;97140.74;1816100;77;25519;-85
2021/07/07 09:37:39;;;;;;;4.58;4.17;;;;;;;35.80;33.22;97138.15;1817468;77;25579;-84
2021/07/07 09:40:09;;;;;;;4.75;4.35;;;;;;;35.85;33.24;97143.44;1821420;77;26387;-83
2021/07/07 09:42:39;;;;;;;5.75;4.12;;;;;;;35.70;32.92;97129.78;1817920;78;26061;-84
2021/07/07 09:45:10;;;;;;;4.70;4.20;;;;;;;35.76;32.77;97138.69;1820982;78;28145;-83
2021/07/07 09:47:40;;;;;;;4.28;3.98;;;;;;;35.69;32.52;97139.98;1821436;78;25558;-84
2021/07/07 09:50:09;;;;;;;5.20;4.72;;;;;;;35.65;32.06;97134.91;1821173;77;25559;-85
2021/07/07 09:52:37;;;;;;;5.17;4.75;;;;;;;35.60;32.18;97138.07;1821441;77;25759;-85
2021/07/07 09:55:11;;;;;;;4.60;4.20;;;;;;;35.48;32.21;97139.72;1821473;77;25464;-83
2021/07/07 09:57:44;;;;;;;5.33;4.70;;;;;;;35.60;32.43;97143.69;1816565;77;27381;-83
2021/07/07 10:00:10;;;;;;;5.80;4.28;;;;;;;35.67;32.09;97147.98;1813958;78;25865;-85
2021/07/07 10:02:39;;;;;;;4.65;4.28;;;;;;;35.80;31.84;97146.58;1821435;77;25605;-83
2021/07/07 10:05:10;;;;;;;4.53;4.12;;;;;;;35.77;31.81;97155.75;1826966;77;26595;-83
2021/07/07 10:07:38;;;;;;;4.53;4.12;;;;;;;35.81;32.05;97153.81;1821845;77;25729;-84
2021/07/07 10:10:08;;;;;;;4.70;4.30;;;;;;;35.86;32.45;97147.86;1821566;77;27429;-84
2021/07/07 10:12:36;;;;;;;4.17;3.77;;;;;;;35.95;32.97;97148.37;1821347;78;25590;-88
2021/07/07 10:15:05;;;;;;;5.30;4.37;;;;;;;36.08;32.36;97159.56;1821345;78;25526;-83
2021/07/07 10:17:34;;;;;;;5.60;5.12;;;;;;;35.94;31.64;97145.94;1806057;77;25795;-84
2021/07/07 10:20:03;;;;;;;4.75;4.45;;;;;;;35.92;31.54;97149.13;1837133;77;25590;-84
2021/07/07 10:22:31;;;;;;;4.65;4.25;;;;;;;35.90;30.60;97151.50;1821485;77;27239;-85
2021/07/07 10:24:59;;;;;;;6.08;4.83;;;;;;;35.96;31.04;97155.61;1828405;77;25656;-83
2021/07/07 10:27:28;;;;;;;5.30;4.90;;;;;;;35.89;30.81;97142.87;1803604;78;26306;-85
2021/07/07 10:29:56;;;;;;;5.22;4.72;;;;;;;35.82;30.55;97147.59;1820770;78;25688;-84
2021/07/07 10:32:28;;;;;;;4.80;4.40;;;;;;;35.71;30.75;97140.42;1821491;78;25511;-85
2021/07/07 10:34:53;;;;;;;4.12;3.80;;;;;;;35.71;30.60;97136.21;1819250;77;27346;-86
2021/07/07 10:37:24;;;;;;;4.60;4.20;;;;;;;35.62;31.12;97147.73;1812823;77;25643;-85
2021/07/07 10:39:52;;;;;;;4.58;4.10;;;;;;;35.55;31.89;97140.61;1812980;77;32386;-85
2021/07/07 10:42:24;;;;;;;7.47;4.50;;;;;;;35.72;32.00;97142.04;1812723;77;26658;-86
2021/07/07 10:44:53;;;;;;;4.60;4.12;;;;;;;35.86;31.44;97144.25;1810628;78;25735;-86
2021/07/07 10:47:33;;;;;;;7.08;4.03;;;;;;;35.91;30.72;97142.48;1812753;78;28225;-84
2021/07/07 10:50:03;;;;;;;3.92;3.62;;;;;;;35.87;30.69;97141.03;1813020;79;25577;-87
2021/07/07 10:52:43;;;;;;;5.28;3.98;;;;;;;35.89;30.58;97135.84;1812743;77;25558;-87
2021/07/07 10:55:14;;;;;;;4.30;4.00;;;;;;;35.92;30.12;97135.09;1808095;78;25679;-84
2021/07/07 10:57:43;;;;;;;;;;;;;;;35.92;30.45;97143.52;1815536;78;25578;-82
2021/07/07 11:00:31;;;;;;;4.37;3.75;;;;;;;35.91;30.33;97144.70;1812756;77;27479;-85
2021/07/07 11:03:32;;;;;;;4.28;3.98;;;;;;;36.00;30.64;97138.77;1812738;77;25543;-84
2021/07/07 11:06:25;;;;;;;8.98;4.00;;;;;;;35.95;30.74;97136.33;1794006;79;26238;-82
2021/07/07 11:09:16;;;;;;;5.15;4.15;;;;;;;35.99;31.04;97132.34;1800415;77;26592;-84
2021/07/07 11:11:47;;;;;;;4.95;4.10;;;;;;;36.06;30.37;97135.25;1812800;77;25605;-84
2021/07/07 11:14:27;;;;;;;4.37;3.45;;;;;;;35.99;30.25;97134.34;1812708;79;27145;-83
2021/07/07 11:16:57;;;;;;;4.53;3.40;;;;;;;35.95;30.33;97132.92;1812666;78;25751;-82
2021/07/07 11:19:44;;;;;;;4.30;3.40;;;;;;;35.93;29.96;97128.28;1812551;79;25625;-82
2021/07/07 11:22:15;;;;;;;4.45;3.80;;;;;;;35.73;30.29;97133.83;1809214;77;26398;-82
2021/07/07 11:24:53;;;;;;;4.35;3.95;;;;;;;35.57;30.24;97129.00;1808798;77;25724;-85
2021/07/07 11:27:22;;;;;;;3.95;3.65;;;;;;;35.54;30.11;97126.95;1800046;77;27206;-83
2021/07/07 11:29:50;;;;;;;4.42;4.03;;;;;;;35.62;29.86;97128.69;1812544;77;25594;-88
2021/07/07 11:32:29;;;;;;;4.83;3.62;;;;;;;35.72;29.55;97132.21;1798757;77;25650;-89
2021/07/07 11:35:01;;;;;;;3.87;3.62;;;;;;;35.84;29.18;97130.59;1812639;77;26458;-84